Time;durP1;ratioP1;P1;durP2;ratioP2;P2;SDS_P1;SDS_P2;PMS_P1;PMS_P2;Temp;Humidity;BMP_temperature;BMP_pressure;BME280_temperature;BME280_humidity;BME280_pressure;Samples;Min_cycle;Max_cycle;Signal;HPM_P1;HPM_P2
2021/08/03 00:02:21;;;;;;;4.28;1.92;;;;;;;16.35;100.00;100734.41;4997765;28;20121;-75
2021/08/03 00:04:49;;;;;;;5.13;2.15;;;;;;;16.44;100.00;100734.78;5008174;28;20038;-75
2021/08/03 00:07:19;;;;;;;5.80;2.08;;;;;;;16.45;100.00;100730.91;5012268;28;20041;-75
2021/08/03 00:09:46;;;;;;;4.38;2.10;;;;;;;16.64;100.00;100738.66;5006568;28;20513;-75
2021/08/03 00:12:14;;;;;;;3.53;1.83;;;;;;;16.74;100.00;100726.97;5008942;28;20060;-74
2021/08/03 00:14:47;;;;;;;4.35;1.83;;;;;;;16.58;100.00;100734.78;5005279;28;20498;-74
2021/08/03 00:17:18;;;;;;;3.90;2.00;;;;;;;16.50;100.00;100742.19;5010690;28;20475;-75
2021/08/03 00:19:45;;;;;;;2.67;2.08;;;;;;;16.67;100.00;100744.06;4986588;28;20445;-74
2021/08/03 00:22:11;;;;;;;6.97;2.17;;;;;;;16.79;100.00;100740.94;5010198;28;20025;-75
2021/08/03 00:24:37;;;;;;;8.35;2.30;;;;;;;16.88;100.00;100743.22;5011505;28;20486;-75
2021/08/03 00:27:04;;;;;;;4.47;2.50;;;;;;;16.65;100.00;100740.19;5003401;28;20048;-74
2021/08/03 00:29:31;;;;;;;6.50;2.17;;;;;;;16.60;100.00;100738.66;4985505;28;20022;-76
2021/08/03 00:31:56;;;;;;;4.53;2.25;;;;;;;16.65;100.00;100745.63;5009269;28;20062;-75
2021/08/03 00:34:22;;;;;;;5.13;2.72;;;;;;;16.66;100.00;100739.81;5011548;28;20454;-75
2021/08/03 00:36:48;;;;;;;5.88;2.17;;;;;;;16.65;100.00;100743.69;5006147;28;20121;-76
2021/08/03 00:39:14;;;;;;;6.40;2.25;;;;;;;16.68;100.00;100747.59;5001718;28;20032;-75
2021/08/03 00:41:44;;;;;;;6.88;2.30;;;;;;;16.61;100.00;100744.88;4991120;28;20397;-76
2021/08/03 00:44:11;;;;;;;3.90;2.20;;;;;;;16.75;100.00;100742.88;4984869;28;20092;-75
2021/08/03 00:46:37;;;;;;;5.68;2.20;;;;;;;16.90;100.00;100749.03;4994826;28;20030;-75
2021/08/03 00:49:04;;;;;;;4.63;2.22;;;;;;;16.84;100.00;100748.69;5010558;28;20042;-76
2021/08/03 00:51:30;;;;;;;5.60;2.20;;;;;;;16.80;100.00;100758.03;5005199;28;20025;-75
2021/08/03 00:53:56;;;;;;;2.85;2.40;;;;;;;16.82;100.00;100744.81;5004032;28;20099;-75
2021/08/03 00:56:22;;;;;;;5.55;2.38;;;;;;;16.60;100.00;100748.75;5011236;28;20045;-75
2021/08/03 00:58:47;;;;;;;5.97;2.78;;;;;;;16.61;100.00;100750.31;4993819;28;20041;-74
2021/08/03 01:01:14;;;;;;;5.47;2.28;;;;;;;16.63;100.00;100750.69;4991285;28;20168;-76
2021/08/03 01:03:41;;;;;;;4.45;1.98;;;;;;;16.70;100.00;100746.03;4986241;28;20530;-75
2021/08/03 01:06:26;;;;;;;3.67;2.40;;;;;;;16.79;100.00;100748.31;4991172;28;20029;-76
2021/08/03 01:09:04;;;;;;;3.90;2.45;;;;;;;16.71;100.00;100750.28;4989387;28;20130;-75
2021/08/03 01:12:04;;;;;;;7.47;2.45;;;;;;;16.50;100.00;100755.00;4989609;28;20394;-75
2021/08/03 01:15:07;;;;;;;5.55;2.55;;;;;;;16.67;100.00;100754.16;4989939;28;20042;-76
2021/08/03 01:17:55;;;;;;;4.68;2.22;;;;;;;16.66;100.00;100747.19;4980659;28;20599;-76
2021/08/03 01:20:29;;;;;;;4.03;2.25;;;;;;;16.78;100.00;100752.97;4989325;28;20384;-75
2021/08/03 01:23:22;;;;;;;3.35;2.00;;;;;;;16.69;100.00;100757.28;4985979;28;20440;-74
2021/08/03 01:26:07;;;;;;;4.75;2.40;;;;;;;16.63;100.00;100754.19;5007498;28;20046;-74
2021/08/03 01:28:44;;;;;;;5.13;2.70;;;;;;;16.61;100.00;100755.75;4991357;28;20046;-74
2021/08/03 01:31:40;;;;;;;4.93;1.80;;;;;;;16.70;100.00;100764.28;5011900;28;20034;-74
2021/08/03 01:34:09;;;;;;;4.15;2.10;;;;;;;16.71;100.00;100760.38;4993594;28;20069;-74
2021/08/03 01:36:39;;;;;;;3.80;1.90;;;;;;;16.76;100.00;100758.03;4986096;28;20064;-74
2021/08/03 01:39:06;;;;;;;5.57;2.00;;;;;;;16.72;100.00;100759.22;5001018;28;20483;-74
2021/08/03 01:41:34;;;;;;;2.53;1.92;;;;;;;16.50;100.00;100763.16;4993440;28;20040;-75
2021/08/03 01:44:04;;;;;;;3.25;1.65;;;;;;;16.51;100.00;100762.00;4989811;28;20025;-74
2021/08/03 01:46:34;;;;;;;4.60;1.90;;;;;;;16.59;100.00;100763.53;5008064;28;20032;-74
2021/08/03 01:49:01;;;;;;;2.97;1.90;;;;;;;16.58;100.00;100761.97;5009735;28;20065;-74
2021/08/03 01:51:33;;;;;;;3.25;1.90;;;;;;;16.49;100.00;100765.09;4989522;28;20141;-74
2021/08/03 01:54:01;;;;;;;2.75;1.70;;;;;;;16.41;100.00;100763.53;4984276;28;20030;-74
2021/08/03 01:56:29;;;;;;;5.20;1.80;;;;;;;16.39;100.00;100770.53;4983208;28;20566;-74
2021/08/03 01:58:58;;;;;;;4.57;2.10;;;;;;;16.51;100.00;100773.63;5011000;28;20033;-74
2021/08/03 02:01:29;;;;;;;3.58;1.83;;;;;;;16.55;100.00;100768.97;5008051;28;20101;-74
2021/08/03 02:04:00;;;;;;;4.45;2.03;;;;;;;16.45;100.00;100764.31;4995116;28;20056;-76
2021/08/03 02:06:26;;;;;;;5.82;2.03;;;;;;;16.39;100.00;100760.44;5004551;28;20046;-74
2021/08/03 02:09:00;;;;;;;3.65;1.98;;;;;;;16.16;100.00;100763.56;4993863;28;20045;-73
2021/08/03 02:11:31;;;;;;;4.85;2.47;;;;;;;16.36;100.00;100766.63;4991838;28;20056;-75
2021/08/03 02:13:57;;;;;;;5.35;2.20;;;;;;;16.51;100.00;100772.88;4990036;28;20036;-74
2021/08/03 02:16:34;;;;;;;6.18;2.30;;;;;;;16.48;100.00;100779.06;5010318;28;20025;-76
2021/08/03 02:19:05;;;;;;;9.57;2.20;;;;;;;16.55;100.00;100768.22;5000609;28;20055;-75
2021/08/03 02:21:45;;;;;;;2.97;2.08;;;;;;;16.47;100.00;100767.41;4991994;28;20465;-74
2021/08/03 02:24:12;;;;;;;3.03;1.90;;;;;;;16.56;100.00;100773.25;4995101;28;20069;-75
2021/08/03 02:26:38;;;;;;;4.63;1.95;;;;;;;16.60;100.00;100770.53;4999968;28;20116;-75
2021/08/03 02:29:06;;;;;;;2.75;1.70;;;;;;;16.53;100.00;100778.69;4993303;28;20036;-74
2021/08/03 02:31:43;;;;;;;5.07;1.83;;;;;;;16.10;100.00;100784.13;4988664;28;20048;-74
2021/08/03 02:34:41;;;;;;;3.75;2.17;;;;;;;16.01;100.00;100777.53;4971417;28;20041;-74
2021/08/03 02:37:11;;;;;;;3.03;1.90;;;;;;;16.04;100.00;100774.84;5019441;28;20022;-74
2021/08/03 02:39:40;;;;;;;6.25;2.25;;;;;;;16.01;100.00;100778.31;4986834;28;20057;-74
2021/08/03 02:42:08;;;;;;;7.13;2.15;;;;;;;16.19;100.00;100789.97;5012188;28;20042;-74
2021/08/03 02:44:34;;;;;;;2.33;1.77;;;;;;;16.20;100.00;100779.88;5025242;28;20153;-74
2021/08/03 02:47:07;;;;;;;3.92;2.08;;;;;;;16.11;100.00;100776.75;4993016;28;20046;-74
2021/08/03 02:49:47;;;;;;;4.57;1.83;;;;;;;16.12;100.00;100773.66;4993723;28;20065;-74
2021/08/03 02:52:13;;;;;;;4.93;2.15;;;;;;;16.19;100.00;100768.22;5013433;28;20040;-74
2021/08/03 02:54:41;;;;;;;3.10;1.90;;;;;;;16.04;100.00;100774.84;5001289;28;20525;-76
2021/08/03 02:57:14;;;;;;;3.88;1.83;;;;;;;15.96;100.00;100762.41;4996324;28;20038;-74
2021/08/03 02:59:44;;;;;;;4.07;1.95;;;;;;;15.86;100.00;100767.81;4996931;28;20038;-74
2021/08/03 03:02:14;;;;;;;1.90;1.70;;;;;;;15.85;100.00;100767.03;4990389;28;20521;-75
2021/08/03 03:04:58;;;;;;;6.03;2.28;;;;;;;15.92;100.00;100767.06;4977270;28;20115;-75
2021/08/03 03:07:32;;;;;;;4.57;1.85;;;;;;;16.06;100.00;100767.06;5030149;23;20489;-71
2021/08/03 03:09:58;;;;;;;4.82;2.20;;;;;;;16.00;100.00;100765.91;5033497;28;20057;-72
2021/08/03 03:12:30;;;;;;;4.25;2.30;;;;;;;15.96;100.00;100761.63;5004634;28;20034;-71
2021/08/03 03:14:59;;;;;;;7.40;2.25;;;;;;;15.88;100.00;100768.22;5017639;28;20429;-71
2021/08/03 03:17:29;;;;;;;3.08;2.10;;;;;;;15.89;100.00;100764.34;5009244;28;20038;-71
2021/08/03 03:19:57;;;;;;;5.15;2.10;;;;;;;15.84;100.00;100762.00;5022831;28;20048;-71
2021/08/03 03:22:25;;;;;;;3.25;2.00;;;;;;;15.77;100.00;100770.16;5014053;28;20029;-70
2021/08/03 03:24:51;;;;;;;5.07;2.15;;;;;;;15.71;100.00;100758.91;5014472;28;20045;-71
2021/08/03 03:27:19;;;;;;;3.00;2.22;;;;;;;15.81;100.00;100770.94;5021606;28;20037;-71
2021/08/03 03:29:47;;;;;;;6.63;2.15;;;;;;;15.75;100.00;100765.13;5031346;28;20039;-72
2021/08/03 03:32:13;;;;;;;2.65;2.10;;;;;;;15.76;100.00;100755.78;5031946;28;20033;-71
2021/08/03 03:34:41;;;;;;;3.15;1.90;;;;;;;15.75;100.00;100759.69;5026418;28;20535;-72
2021/08/03 03:37:06;;;;;;;2.88;2.10;;;;;;;15.64;100.00;100760.84;5017028;28;20042;-72
2021/08/03 03:39:37;;;;;;;4.80;1.92;;;;;;;15.61;100.00;100754.22;5020143;28;20489;-72
2021/08/03 03:42:05;;;;;;;4.82;2.00;;;;;;;15.61;100.00;100764.31;5024313;28;20089;-71
2021/08/03 03:44:32;;;;;;;4.68;2.38;;;;;;;15.45;100.00;100761.94;5022301;28;20124;-71
2021/08/03 03:47:05;;;;;;;6.63;2.30;;;;;;;15.33;100.00;100775.84;5026218;28;20033;-71
2021/08/03 03:49:37;;;;;;;3.88;2.35;;;;;;;15.36;100.00;100767.72;5024384;28;20037;-72
2021/08/03 03:52:05;;;;;;;5.25;2.28;;;;;;;15.39;100.00;100768.88;5007185;28;20056;-71
2021/08/03 03:54:38;;;;;;;6.40;2.30;;;;;;;15.41;100.00;100765.81;5018090;28;20056;-71
2021/08/03 03:57:07;;;;;;;4.18;2.05;;;;;;;15.21;100.00;100773.50;5018683;28;20145;-72
2021/08/03 03:59:36;;;;;;;4.75;2.35;;;;;;;15.18;100.00;100779.69;5031564;28;20036;-72
2021/08/03 04:02:05;;;;;;;5.85;2.95;;;;;;;15.23;100.00;100774.66;5009143;28;20116;-72
2021/08/03 04:04:32;;;;;;;4.43;2.50;;;;;;;15.22;100.00;100775.03;5016437;28;20040;-72
2021/08/03 04:06:59;;;;;;;4.05;2.35;;;;;;;15.08;100.00;100775.75;5013301;28;20083;-72
2021/08/03 04:09:24;;;;;;;7.43;2.50;;;;;;;15.13;100.00;100777.34;5014719;28;20030;-71
2021/08/03 04:11:56;;;;;;;4.88;2.60;;;;;;;15.24;100.00;100778.16;5014948;28;20075;-72
2021/08/03 04:14:27;;;;;;;4.93;2.78;;;;;;;15.30;100.00;100771.19;5031041;28;20041;-72
2021/08/03 04:16:57;;;;;;;4.20;2.50;;;;;;;15.34;100.00;100774.69;5010354;28;20378;-72
2021/08/03 04:19:24;;;;;;;6.35;2.83;;;;;;;15.41;100.00;100772.00;5030760;28;20091;-72
2021/08/03 04:21:50;;;;;;;6.30;2.47;;;;;;;15.38;100.00;100778.19;5030536;28;20021;-74
2021/08/03 04:24:17;;;;;;;7.32;3.22;;;;;;;15.38;100.00;100791.78;5030642;28;20264;-72
2021/08/03 04:26:44;;;;;;;7.18;2.83;;;;;;;15.35;100.00;100787.88;5024974;28;20091;-72
2021/08/03 04:29:10;;;;;;;6.25;3.15;;;;;;;15.51;100.00;100787.56;5028616;28;20441;-72
2021/08/03 04:31:36;;;;;;;6.10;2.85;;;;;;;15.67;100.00;100798.06;5031990;28;20025;-72
2021/08/03 04:34:02;;;;;;;7.65;2.72;;;;;;;15.74;100.00;100793.41;5028258;28;20053;-73
2021/08/03 04:36:27;;;;;;;5.95;3.05;;;;;;;15.74;100.00;100796.13;5031111;28;20056;-72
2021/08/03 04:38:53;;;;;;;3.90;2.50;;;;;;;15.89;100.00;100797.69;5032173;28;20428;-72
2021/08/03 04:41:18;;;;;;;6.25;3.05;;;;;;;15.98;100.00;100794.63;5013702;28;20084;-72
2021/08/03 04:43:44;;;;;;;4.95;2.90;;;;;;;16.06;100.00;100799.69;5027230;28;20401;-72
2021/08/03 04:46:10;;;;;;;5.38;3.42;;;;;;;16.09;100.00;100798.91;5030563;28;20044;-72
2021/08/03 04:48:35;;;;;;;5.53;3.22;;;;;;;16.27;100.00;100796.16;5030699;28;20064;-72
2021/08/03 04:51:01;;;;;;;7.05;3.60;;;;;;;16.40;100.00;100805.47;5026167;28;20057;-71
2021/08/03 04:53:26;;;;;;;6.22;3.40;;;;;;;16.45;100.00;100807.03;5030429;28;20072;-73
2021/08/03 04:55:52;;;;;;;5.97;3.15;;;;;;;16.42;100.00;100807.81;5006903;28;20701;-72
2021/08/03 04:58:18;;;;;;;6.13;2.97;;;;;;;16.49;100.00;100802.41;5021982;28;20037;-72
2021/08/03 05:00:43;;;;;;;8.27;3.28;;;;;;;16.43;100.00;100814.81;5001563;28;20064;-72
2021/08/03 05:03:10;;;;;;;5.45;3.25;;;;;;;16.49;100.00;100805.13;5030527;28;20076;-72
2021/08/03 05:05:36;;;;;;;9.45;3.60;;;;;;;16.54;100.00;100805.50;5012896;28;20045;-73
2021/08/03 05:08:02;;;;;;;5.85;3.60;;;;;;;16.56;100.00;100802.38;5027174;28;20026;-74
2021/08/03 05:10:29;;;;;;;11.00;3.42;;;;;;;16.55;100.00;100809.00;5019609;28;20075;-73
2021/08/03 05:12:55;;;;;;;13.13;3.97;;;;;;;16.64;100.00;100807.44;5012533;28;20030;-72
2021/08/03 05:15:21;;;;;;;6.22;3.50;;;;;;;16.71;100.00;100812.06;5013388;28;20076;-72
2021/08/03 05:17:47;;;;;;;6.47;3.30;;;;;;;16.75;100.00;100816.34;5022707;28;20029;-72
2021/08/03 05:20:13;;;;;;;7.65;3.63;;;;;;;16.84;100.00;100810.50;5028334;28;20088;-72
2021/08/03 05:22:40;;;;;;;8.60;3.20;;;;;;;16.85;100.00;100814.75;5024738;28;20040;-72
2021/08/03 05:25:05;;;;;;;9.88;3.53;;;;;;;16.91;100.00;100813.19;5008829;28;20517;-72
2021/08/03 05:27:31;;;;;;;6.47;2.85;;;;;;;16.91;100.00;100815.91;5022946;28;20038;-72
2021/08/03 05:29:57;;;;;;;8.23;3.15;;;;;;;17.01;100.00;100821.28;5019121;28;20411;-72
2021/08/03 05:32:22;;;;;;;5.22;2.47;;;;;;;16.98;100.00;100829.47;5020430;28;20109;-71
2021/08/03 05:34:48;;;;;;;6.50;2.45;;;;;;;17.11;100.00;100822.47;5027954;28;20041;-75
2021/08/03 05:37:14;;;;;;;5.60;2.65;;;;;;;17.08;100.00;100831.41;5031025;28;20021;-72
2021/08/03 05:39:39;;;;;;;3.70;2.17;;;;;;;17.08;100.00;100839.56;5022480;28;20041;-71
2021/08/03 05:42:05;;;;;;;2.30;1.65;;;;;;;17.11;100.00;100844.97;5024169;28;20064;-72
2021/08/03 05:44:31;;;;;;;3.08;1.80;;;;;;;16.98;100.00;100845.81;5002265;28;20503;-72
2021/08/03 05:46:57;;;;;;;5.50;1.88;;;;;;;16.85;100.00;100841.97;5028347;28;20482;-72
2021/08/03 05:49:23;;;;;;;6.22;1.63;;;;;;;16.78;100.00;100848.19;5030548;28;20040;-73
2021/08/03 05:51:48;;;;;;;3.45;1.30;;;;;;;16.78;100.00;100844.69;5007613;28;20034;-73
2021/08/03 05:54:14;;;;;;;2.03;1.10;;;;;;;16.70;100.00;100843.16;5028204;28;20033;-76
2021/08/03 05:56:41;;;;;;;1.80;1.10;;;;;;;16.62;100.00;100849.78;5006495;28;20030;-73
2021/08/03 05:59:07;;;;;;;2.78;1.10;;;;;;;16.44;100.00;100841.59;5013371;28;20677;-73
2021/08/03 06:01:33;;;;;;;1.48;0.90;;;;;;;16.28;100.00;100841.19;5024547;28;20033;-72
2021/08/03 06:03:58;;;;;;;1.05;0.77;;;;;;;16.40;100.00;100829.94;5025770;28;20095;-72
2021/08/03 06:06:26;;;;;;;3.63;1.20;;;;;;;16.31;100.00;100826.06;5028209;28;20029;-72
2021/08/03 06:08:53;;;;;;;1.45;1.00;;;;;;;16.12;100.00;100825.28;5021153;28;20033;-74
2021/08/03 06:11:26;;;;;;;2.20;1.42;;;;;;;16.26;100.00;100811.69;5026653;28;20111;-77
2021/08/03 06:13:55;;;;;;;2.25;1.17;;;;;;;16.22;100.00;100808.19;5002713;28;20827;-72
2021/08/03 06:16:21;;;;;;;1.35;1.10;;;;;;;16.30;100.00;100816.38;5021409;28;20034;-74
2021/08/03 06:18:48;;;;;;;3.40;1.17;;;;;;;16.43;100.00;100804.72;5028781;28;20026;-75
2021/08/03 06:21:15;;;;;;;2.15;1.45;;;;;;;16.62;100.00;100806.25;5022023;28;20032;-74
2021/08/03 06:23:46;;;;;;;1.10;1.00;;;;;;;16.73;100.00;100802.34;5012137;28;20048;-71
2021/08/03 06:26:13;;;;;;;1.52;1.20;;;;;;;16.65;100.00;100805.47;5011276;28;20041;-74
2021/08/03 06:28:42;;;;;;;1.10;1.00;;;;;;;16.62;100.00;100808.97;5012696;28;20036;-74
2021/08/03 06:31:08;;;;;;;3.88;1.10;;;;;;;16.72;100.00;100817.13;5020221;28;20033;-74
2021/08/03 06:33:34;;;;;;;1.45;1.05;;;;;;;16.70;100.00;100819.47;5025124;28;20025;-71
2021/08/03 06:36:00;;;;;;;2.40;1.10;;;;;;;16.72;100.00;100811.69;5028624;28;20087;-74
2021/08/03 06:38:25;;;;;;;1.35;1.00;;;;;;;16.54;100.00;100826.47;5029212;28;20029;-72
2021/08/03 06:40:59;;;;;;;1.38;1.05;;;;;;;16.68;100.00;100819.06;5023432;28;20449;-74
2021/08/03 06:43:28;;;;;;;1.45;1.10;;;;;;;16.70;100.00;100821.41;5016971;28;20397;-72
2021/08/03 06:46:08;;;;;;;1.23;0.98;;;;;;;16.73;100.00;100812.44;5027196;28;20064;-74
2021/08/03 06:48:40;;;;;;;2.08;1.02;;;;;;;16.85;100.00;100801.94;5029780;28;20048;-74
2021/08/03 06:51:11;;;;;;;2.33;1.23;;;;;;;17.01;100.00;100813.13;5027475;28;20037;-73
2021/08/03 06:53:38;;;;;;;1.38;0.85;;;;;;;16.99;100.00;100803.84;5007425;28;20072;-74
2021/08/03 06:56:05;;;;;;;0.90;0.88;;;;;;;17.03;100.00;100807.31;5022487;28;20108;-73
2021/08/03 06:58:58;;;;;;;2.65;0.82;;;;;;;17.15;100.00;100817.75;5024607;28;20033;-72
2021/08/03 07:01:36;;;;;;;0.77;0.77;;;;;;;17.08;100.00;100810.41;5027759;28;20041;-73
2021/08/03 07:04:04;;;;;;;2.05;0.90;;;;;;;17.15;100.00;100812.31;5028364;28;20033;-73
2021/08/03 07:06:32;;;;;;;1.50;0.80;;;;;;;17.29;100.00;100812.25;5020610;28;20405;-74
2021/08/03 07:09:04;;;;;;;1.08;0.80;;;;;;;17.17;100.00;100809.22;5028314;28;20041;-73
2021/08/03 07:11:30;;;;;;;1.67;0.70;;;;;;;17.23;100.00;100813.84;5011941;28;20037;-75
2021/08/03 07:13:57;;;;;;;0.85;0.60;;;;;;;17.19;100.00;100817.75;5026302;28;20041;-74
2021/08/03 07:16:24;;;;;;;0.60;0.60;;;;;;;17.15;100.00;100817.75;5020123;28;20056;-73
2021/08/03 07:18:49;;;;;;;1.00;0.80;;;;;;;17.22;100.00;100817.75;5027890;28;20045;-73
2021/08/03 07:21:16;;;;;;;1.08;0.80;;;;;;;17.14;100.00;100827.09;5024775;28;20025;-74
2021/08/03 07:23:43;;;;;;;2.05;0.68;;;;;;;17.28;100.00;100820.81;5035203;28;20076;-74
2021/08/03 07:26:08;;;;;;;1.83;0.85;;;;;;;17.29;100.00;100825.88;5011587;28;20031;-75
2021/08/03 07:28:34;;;;;;;1.73;0.80;;;;;;;17.50;100.00;100823.06;5029617;28;20095;-74
2021/08/03 07:31:00;;;;;;;1.48;0.77;;;;;;;17.28;100.00;100829.00;5029697;28;20058;-75
2021/08/03 07:33:26;;;;;;;1.67;0.80;;;;;;;17.69;100.00;100824.53;5032967;28;20033;-73
2021/08/03 07:35:51;;;;;;;0.80;0.70;;;;;;;17.93;100.00;100838.00;5028638;28;20021;-74
2021/08/03 07:38:17;;;;;;;2.22;0.70;;;;;;;18.31;100.00;100830.69;5031282;28;20068;-74
2021/08/03 07:40:42;;;;;;;0.77;0.70;;;;;;;18.38;98.43;100836.09;5032611;28;20036;-74
2021/08/03 07:43:08;;;;;;;0.70;0.70;;;;;;;18.51;97.17;100825.47;5009075;28;20092;-73
2021/08/03 07:45:36;;;;;;;1.00;0.65;;;;;;;18.82;98.33;100835.31;5016990;28;20025;-74
2021/08/03 07:48:01;;;;;;;0.75;0.60;;;;;;;19.10;97.46;100835.00;5030079;28;20118;-74
2021/08/03 07:50:27;;;;;;;1.13;0.80;;;;;;;19.24;94.73;100834.06;5008588;28;20093;-74
2021/08/03 07:52:54;;;;;;;1.48;0.80;;;;;;;19.36;92.91;100836.28;5026159;28;20041;-74
2021/08/03 07:55:19;;;;;;;1.67;0.70;;;;;;;19.13;91.55;100831.47;5014701;28;20029;-75
2021/08/03 07:57:45;;;;;;;2.45;0.80;;;;;;;19.11;93.24;100842.00;5020941;28;20117;-75
2021/08/03 08:00:11;;;;;;;3.38;0.70;;;;;;;19.11;93.85;100835.75;5016228;28;20038;-73
2021/08/03 08:02:37;;;;;;;0.80;0.70;;;;;;;19.30;93.71;100832.44;5016311;28;20060;-74
2021/08/03 08:05:02;;;;;;;1.08;0.60;;;;;;;19.54;92.81;100836.81;5012785;28;20065;-74
2021/08/03 08:07:28;;;;;;;2.83;0.57;;;;;;;19.64;92.45;100835.91;5022497;28;20033;-74
2021/08/03 08:09:54;;;;;;;1.63;0.80;;;;;;;19.78;92.45;100836.47;5010130;28;20047;-72
2021/08/03 08:12:20;;;;;;;3.65;1.00;;;;;;;19.72;94.24;100835.38;5023754;28;20091;-74
2021/08/03 08:14:48;;;;;;;2.45;0.80;;;;;;;19.95;92.92;100831.16;5023447;28;20063;-73
2021/08/03 08:17:13;;;;;;;1.30;0.80;;;;;;;20.07;91.18;100836.06;5031107;28;20056;-74
2021/08/03 08:19:40;;;;;;;1.17;0.70;;;;;;;20.16;90.80;100828.88;5012030;28;20038;-74
2021/08/03 08:22:05;;;;;;;2.15;1.10;;;;;;;20.14;89.58;100827.75;5020718;28;20057;-74
2021/08/03 08:24:31;;;;;;;1.08;0.68;;;;;;;20.39;90.75;100825.41;5012774;28;20466;-74
2021/08/03 08:26:56;;;;;;;1.23;0.82;;;;;;;20.27;88.26;100823.25;5018812;28;20048;-74
2021/08/03 08:29:23;;;;;;;1.40;0.70;;;;;;;20.62;85.40;100817.16;5017500;28;20042;-75
2021/08/03 08:31:48;;;;;;;1.60;0.70;;;;;;;20.73;85.47;100808.78;5014523;28;20099;-74
2021/08/03 08:34:14;;;;;;;3.25;0.73;;;;;;;21.02;84.15;100826.22;5015407;28;20115;-74
2021/08/03 08:36:39;;;;;;;1.58;0.73;;;;;;;21.13;83.44;100811.13;5022897;28;20136;-74
2021/08/03 08:39:06;;;;;;;0.85;0.73;;;;;;;21.30;84.13;100814.69;5010255;28;20087;-74
2021/08/03 08:41:35;;;;;;;1.00;0.60;;;;;;;21.30;81.36;100809.22;5021922;28;20485;-75
2021/08/03 08:44:02;;;;;;;1.35;0.60;;;;;;;21.46;79.19;100815.53;5026456;28;20076;-72
2021/08/03 08:46:40;;;;;;;1.20;0.60;;;;;;;21.37;79.22;100815.31;5028911;28;20069;-73
2021/08/03 08:49:07;;;;;;;1.00;0.65;;;;;;;21.63;78.80;100802.59;5029141;28;20079;-74
2021/08/03 08:51:33;;;;;;;1.75;0.57;;;;;;;21.74;76.44;100807.88;5009884;28;20041;-74
2021/08/03 08:54:00;;;;;;;1.95;0.77;;;;;;;21.75;74.08;100812.13;5029848;28;20025;-74
2021/08/03 08:56:29;;;;;;;0.60;0.50;;;;;;;21.99;71.70;100808.09;5030858;28;20103;-75
2021/08/03 08:58:55;;;;;;;0.57;0.30;;;;;;;22.06;67.50;100810.66;5008466;28;20071;-73
2021/08/03 09:01:21;;;;;;;2.40;0.60;;;;;;;21.89;63.76;100806.34;5007491;28;20025;-74
2021/08/03 09:03:46;;;;;;;0.82;0.57;;;;;;;21.88;64.38;100802.84;5026180;28;20443;-75
2021/08/03 09:06:12;;;;;;;0.90;0.50;;;;;;;21.81;64.65;100805.75;5028221;28;20057;-75
2021/08/03 09:08:40;;;;;;;3.33;0.60;;;;;;;21.51;68.44;100812.25;5076593;22;20050;-77
2021/08/03 09:11:16;;;;;;;1.20;0.52;;;;;;;21.97;69.10;100807.75;5080662;28;20027;-77
2021/08/03 09:14:01;;;;;;;0.95;0.40;;;;;;;21.82;63.56;100803.75;5065052;28;20115;-77
2021/08/03 09:16:42;;;;;;;1.13;0.55;;;;;;;22.23;65.03;100792.97;5075656;28;20020;-77
2021/08/03 09:19:26;;;;;;;0.75;0.50;;;;;;;22.07;61.82;100788.25;5057674;28;20025;-76
2021/08/03 09:22:12;;;;;;;0.82;0.47;;;;;;;22.53;66.25;100781.56;5047636;28;20111;-77
2021/08/03 09:24:39;;;;;;;1.45;0.60;;;;;;;22.99;64.79;100792.13;5056154;28;20035;-77
2021/08/03 09:27:04;;;;;;;1.20;0.47;;;;;;;22.82;64.46;100787.13;5043211;28;20032;-77
2021/08/03 09:29:42;;;;;;;0.57;0.45;;;;;;;23.25;63.92;100785.47;5056523;28;20044;-76
2021/08/03 09:32:08;;;;;;;0.52;0.50;;;;;;;23.62;63.37;100791.44;5053524;28;20032;-76
2021/08/03 09:34:33;;;;;;;1.65;0.30;;;;;;;23.12;57.68;100797.63;5063230;28;20147;-77
2021/08/03 09:36:59;;;;;;;1.75;0.52;;;;;;;22.28;59.83;100795.19;5034470;28;20060;-76
2021/08/03 09:39:37;;;;;;;0.60;0.60;;;;;;;21.78;61.62;100795.59;5070733;28;20028;-76
2021/08/03 09:42:06;;;;;;;0.47;0.40;;;;;;;21.68;64.38;100790.38;5042055;28;20123;-76
2021/08/03 09:44:31;;;;;;;0.75;0.50;;;;;;;21.74;63.64;100792.16;5067615;28;20064;-76
2021/08/03 09:46:58;;;;;;;2.08;0.50;;;;;;;21.45;64.47;100792.03;5047329;28;20052;-76
2021/08/03 09:49:48;;;;;;;0.57;0.45;;;;;;;21.95;66.32;100782.69;5035233;28;20037;-76
2021/08/03 09:52:15;;;;;;;0.52;0.47;;;;;;;21.77;61.42;100788.56;5057044;28;20039;-76
2021/08/03 09:54:41;;;;;;;2.53;0.60;;;;;;;21.77;65.33;100785.84;5048573;28;20590;-76
2021/08/03 09:57:25;;;;;;;0.93;0.50;;;;;;;22.33;61.89;100786.44;5059182;28;20037;-76
2021/08/03 09:59:52;;;;;;;0.70;0.65;;;;;;;22.09;59.03;100782.34;5056041;28;20103;-76
2021/08/03 10:02:22;;;;;;;0.50;0.50;;;;;;;22.41;62.71;100776.81;5053662;28;20072;-74
2021/08/03 10:04:48;;;;;;;0.90;0.50;;;;;;;22.49;61.70;100774.66;5060122;28;20040;-74
2021/08/03 10:07:14;;;;;;;3.67;0.60;;;;;;;22.49;59.70;100780.16;5045376;28;20040;-77
2021/08/03 10:09:42;;;;;;;1.33;0.50;;;;;;;22.82;62.14;100776.88;5040747;28;20036;-76
2021/08/03 10:12:09;;;;;;;3.38;0.80;;;;;;;23.39;60.30;100773.28;5068116;28;20032;-74
2021/08/03 10:14:35;;;;;;;1.85;0.95;;;;;;;23.80;58.54;100778.69;5066471;28;20028;-76
2021/08/03 10:17:00;;;;;;;1.45;0.47;;;;;;;23.44;55.68;100777.47;5044851;28;20027;-76
2021/08/03 10:19:28;;;;;;;0.70;0.70;;;;;;;23.43;56.69;100770.44;5065871;28;20024;-75
2021/08/03 10:22:02;;;;;;;0.60;0.60;;;;;;;23.81;59.04;100779.47;5070278;28;20033;-75
2021/08/03 10:24:33;;;;;;;1.95;0.60;;;;;;;23.49;56.05;100774.19;5066343;28;20037;-80
2021/08/03 10:27:07;;;;;;;0.65;0.50;;;;;;;23.72;58.13;100777.38;5061706;28;20085;-77
2021/08/03 10:29:37;;;;;;;0.85;0.55;;;;;;;24.10;58.18;100780.84;5039965;28;20041;-75
2021/08/03 10:32:03;;;;;;;2.10;0.50;;;;;;;24.06;57.54;100776.69;5062009;28;20041;-77
2021/08/03 10:34:48;;;;;;;1.67;0.57;;;;;;;23.52;56.20;100773.31;5062093;28;20507;-76
2021/08/03 10:37:13;;;;;;;2.97;0.82;;;;;;;24.02;58.16;100767.78;5062776;28;20029;-77
2021/08/03 10:39:56;;;;;;;0.93;0.65;;;;;;;24.04;56.58;100771.63;5064616;28;20043;-74
2021/08/03 10:42:26;;;;;;;1.77;0.57;;;;;;;24.26;56.01;100766.16;5058714;28;20051;-74
2021/08/03 10:44:57;;;;;;;2.22;0.73;;;;;;;23.94;52.43;100775.44;5038720;28;20033;-77
2021/08/03 10:47:36;;;;;;;;;;;;;;;23.58;55.74;100764.06;5049540;28;20090;-75
2021/08/03 10:50:07;;;;;;;0.60;0.60;;;;;;;24.07;55.61;100767.22;5039509;28;19961;-74
2021/08/03 10:52:46;;;;;;;1.85;0.50;;;;;;;24.26;56.03;100766.16;5060191;28;20032;-75
2021/08/03 10:55:40;;;;;;;2.92;0.68;;;;;;;24.07;54.83;100765.25;5049980;28;20076;-74
2021/08/03 10:58:09;;;;;;;0.60;0.60;;;;;;;23.99;54.81;100765.88;5073592;28;20099;-78
2021/08/03 11:00:47;;;;;;;1.55;0.63;;;;;;;23.89;55.50;100758.72;5065027;28;20024;-78
2021/08/03 11:03:35;;;;;;;1.95;0.57;;;;;;;23.61;54.36;100760.44;5058539;28;20040;-75
2021/08/03 11:06:03;;;;;;;0.63;0.50;;;;;;;23.88;58.05;100762.72;5053151;28;20025;-77
2021/08/03 11:08:36;;;;;;;2.35;0.70;;;;;;;23.98;56.95;100759.59;5069367;28;20400;-78
2021/08/03 11:11:06;;;;;;;4.18;0.70;;;;;;;24.14;55.95;100753.19;5065439;28;20032;-77
2021/08/03 11:13:56;;;;;;;1.63;0.63;;;;;;;23.74;54.25;100755.69;5075640;28;20054;-78
2021/08/03 11:16:21;;;;;;;0.93;0.60;;;;;;;24.11;57.45;100754.09;5051245;28;20029;-75
2021/08/03 11:18:52;;;;;;;0.98;0.70;;;;;;;24.06;55.14;100747.16;5039287;28;20062;-75
2021/08/03 11:21:25;;;;;;;0.95;0.50;;;;;;;24.16;54.98;100750.78;5058896;28;20481;-76
2021/08/03 11:23:58;;;;;;;0.50;0.50;;;;;;;23.77;54.22;100752.03;5057200;28;20025;-75
2021/08/03 11:26:27;;;;;;;0.77;0.50;;;;;;;23.86;54.55;100743.91;5072922;28;20025;-75
2021/08/03 11:29:07;;;;;;;0.63;0.63;;;;;;;23.97;55.01;100746.28;5061102;28;20635;-75
2021/08/03 11:31:44;;;;;;;2.75;0.75;;;;;;;24.37;54.73;100736.28;5073235;28;20081;-75